Time;durP1;ratioP1;P1;durP2;ratioP2;P2;SDS_P1;SDS_P2;PMS_P1;PMS_P2;Temp;Humidity;BMP_temperature;BMP_pressure;BME280_temperature;BME280_humidity;BME280_pressure;Samples;Min_cycle;Max_cycle;Signal;HPM_P1;HPM_P2
2022/08/25 00:01:30;;;;;;;7.95;7.15;;;17.20;97.40;;;;;;5117764;28;20196;-86
2022/08/25 00:03:58;;;;;;;8.95;7.90;;;17.30;97.00;;;;;;5112393;28;20219;-86
2022/08/25 00:06:25;;;;;;;8.30;7.18;;;17.30;96.70;;;;;;5113630;28;20207;-86
2022/08/25 00:08:52;;;;;;;9.38;7.10;;;17.30;96.70;;;;;;5112766;28;20200;-86
2022/08/25 00:11:21;;;;;;;7.28;5.78;;;17.20;96.80;;;;;;5112649;28;20685;-86
2022/08/25 00:13:52;;;;;;;10.07;8.88;;;17.20;96.90;;;;;;5110213;28;20208;-86
2022/08/25 00:16:21;;;;;;;7.45;6.65;;;17.10;97.40;;;;;;5116661;28;20204;-86
2022/08/25 00:18:57;;;;;;;9.13;8.20;;;17.20;97.20;;;;;;5117905;28;20200;-86
2022/08/25 00:21:25;;;;;;;7.60;5.88;;;17.30;97.10;;;;;;5120481;28;20191;-86
2022/08/25 00:23:52;;;;;;;8.07;7.28;;;17.20;97.00;;;;;;5123566;28;20226;-85
2022/08/25 00:26:19;;;;;;;8.15;7.15;;;17.10;97.40;;;;;;5105836;28;20211;-85
2022/08/25 00:28:46;;;;;;;6.88;6.28;;;17.10;97.40;;;;;;5117650;28;20572;-86
2022/08/25 00:31:22;;;;;;;6.25;5.45;;;17.00;97.40;;;;;;5118252;28;20228;-86
2022/08/25 00:33:50;;;;;;;7.47;6.10;;;16.90;97.40;;;;;;5116499;28;20207;-86
2022/08/25 00:36:18;;;;;;;9.88;8.73;;;16.80;97.80;;;;;;5118505;28;20818;-86
2022/08/25 00:38:47;;;;;;;9.15;8.23;;;16.80;98.30;;;;;;5114845;28;20296;-86
2022/08/25 00:41:18;;;;;;;9.45;8.48;;;16.90;98.10;;;;;;5112425;28;20200;-86
2022/08/25 00:43:51;;;;;;;8.40;7.53;;;16.90;98.00;;;;;;5118420;28;20236;-86
2022/08/25 00:46:24;;;;;;;10.52;8.82;;;17.00;98.10;;;;;;5118115;28;20249;-86
2022/08/25 00:48:56;;;;;;;10.63;9.52;;;17.00;98.00;;;;;;5113459;28;20646;-86
2022/08/25 00:51:32;;;;;;;11.80;9.90;;;17.00;98.10;;;;;;5118063;28;20200;-86
2022/08/25 00:54:00;;;;;;;10.60;9.50;;;17.00;98.20;;;;;;5117889;28;20205;-86
2022/08/25 00:56:28;;;;;;;9.40;8.13;;;17.00;98.10;;;;;;5110100;28;20199;-86
2022/08/25 00:58:55;;;;;;;10.02;9.02;;;17.10;98.00;;;;;;5118075;28;20207;-86
2022/08/25 01:01:23;;;;;;;9.20;8.20;;;17.20;97.90;;;;;;5106248;28;20196;-86
2022/08/25 01:03:50;;;;;;;10.55;8.80;;;17.10;97.80;;;;;;5106969;27;20238;-86
2022/08/25 01:06:17;;;;;;;8.80;7.80;;;17.10;97.90;;;;;;5107283;28;20210;-86
2022/08/25 01:08:45;;;;;;;9.27;8.30;;;17.10;97.80;;;;;;5115954;28;20296;-86
2022/08/25 01:11:12;;;;;;;8.60;7.50;;;17.10;97.70;;;;;;5115649;28;20196;-86
2022/08/25 01:13:52;;;;;;;10.93;9.48;;;17.00;97.70;;;;;;5117899;28;20208;-86
2022/08/25 01:16:19;;;;;;;10.73;8.82;;;16.90;98.20;;;;;;5116625;28;20283;-86
2022/08/25 01:18:50;;;;;;;10.00;8.38;;;16.90;98.40;;;;;;5110673;28;20196;-86
2022/08/25 01:21:20;;;;;;;10.13;9.10;;;16.90;98.50;;;;;;5116759;28;20206;-86
2022/08/25 01:23:48;;;;;;;10.52;9.40;;;16.90;98.70;;;;;;5117094;28;20545;-86
2022/08/25 01:26:26;;;;;;;9.20;8.07;;;17.00;98.70;;;;;;5115995;28;20200;-86
2022/08/25 01:31:48;;;;;;;11.10;9.63;;;16.90;98.70;;;;;;5104837;28;20602;-85
2022/08/25 01:34:20;;;;;;;10.90;8.63;;;16.90;98.80;;;;;;5104160;28;20199;-85
2022/08/25 01:36:48;;;;;;;9.90;8.02;;;16.90;98.80;;;;;;5103480;28;20250;-85
2022/08/25 01:39:15;;;;;;;13.20;9.68;;;16.90;98.80;;;;;;5116890;28;20196;-85
2022/08/25 01:41:50;;;;;;;10.13;8.40;;;16.90;98.70;;;;;;5110038;28;20731;-85
2022/08/25 01:44:23;;;;;;;10.18;9.07;;;16.80;98.60;;;;;;5106920;28;20253;-85
2022/08/25 01:46:59;;;;;;;11.20;9.63;;;16.70;99.00;;;;;;5115356;28;20207;-86
2022/08/25 01:49:26;;;;;;;11.52;8.80;;;16.70;99.40;;;;;;5103102;28;20653;-86
2022/08/25 01:52:00;;;;;;;10.75;9.65;;;16.70;99.30;;;;;;5115579;28;20211;-86
2022/08/25 01:54:30;;;;;;;10.95;8.75;;;16.60;99.60;;;;;;5102907;28;20647;-86
2022/08/25 01:56:58;;;;;;;10.68;8.77;;;16.60;99.80;;;;;;5115671;28;20207;-86
2022/08/25 01:59:26;;;;;;;10.35;9.35;;;16.60;99.60;;;;;;5109822;28;20193;-86
2022/08/25 02:01:59;;;;;;;10.07;9.07;;;16.60;99.50;;;;;;5106988;28;20226;-86
2022/08/25 02:04:28;;;;;;;10.38;8.95;;;16.60;99.80;;;;;;5115162;28;20228;-86
2022/08/25 02:07:03;;;;;;;12.07;10.15;;;16.60;99.70;;;;;;5114116;28;20231;-86
2022/08/25 02:09:30;;;;;;;11.05;8.98;;;16.60;99.60;;;;;;5101323;28;20187;-86
2022/08/25 02:11:57;;;;;;;12.52;10.60;;;16.60;99.90;;;;;;5112795;28;20199;-86
2022/08/25 02:14:25;;;;;;;13.35;10.63;;;16.60;99.90;;;;;;5112522;28;20203;-86
2022/08/25 02:16:54;;;;;;;12.30;10.55;;;16.50;99.90;;;;;;5113286;28;20200;-85
2022/08/25 02:19:24;;;;;;;14.38;11.25;;;16.60;99.90;;;;;;5116086;28;20195;-86
2022/08/25 02:21:51;;;;;;;12.80;11.40;;;16.50;99.90;;;;;;5115130;28;20200;-86
2022/08/25 02:24:20;;;;;;;14.18;11.95;;;16.40;99.90;;;;;;5114243;28;20224;-86
2022/08/25 02:26:48;;;;;;;14.77;12.18;;;16.40;99.90;;;;;;5111659;28;20562;-86
2022/08/25 02:29:15;;;;;;;17.35;12.32;;;16.50;99.90;;;;;;5114645;28;20198;-86
2022/08/25 02:31:59;;;;;;;14.88;12.80;;;16.50;99.90;;;;;;5114236;28;20225;-86
2022/08/25 02:34:26;;;;;;;17.65;13.70;;;16.40;99.90;;;;;;5114106;28;20302;-86
2022/08/25 02:36:54;;;;;;;14.82;12.13;;;16.40;99.90;;;;;;5108511;28;20335;-86
2022/08/25 02:39:22;;;;;;;15.93;12.95;;;16.50;99.90;;;;;;5096733;28;20206;-86
2022/08/25 02:42:00;;;;;;;16.58;11.98;;;16.50;99.90;;;;;;5102588;28;20209;-86
2022/08/25 02:44:26;;;;;;;14.98;11.43;;;16.60;99.90;;;;;;5112646;28;20223;-86
2022/08/25 02:46:53;;;;;;;15.52;12.93;;;16.60;99.90;;;;;;5101504;28;20215;-86
2022/08/25 02:49:41;;;;;;;14.98;12.00;;;16.50;99.90;;;;;;5108804;28;20643;-86
2022/08/25 02:52:08;;;;;;;15.63;12.25;;;16.50;99.90;;;;;;5111232;28;20299;-86
2022/08/25 02:54:37;;;;;;;15.65;12.68;;;16.50;99.90;;;;;;5113955;28;20214;-86
2022/08/25 02:57:04;;;;;;;19.85;13.52;;;16.40;99.90;;;;;;5111885;28;20200;-86
2022/08/25 02:59:31;;;;;;;19.60;14.18;;;16.30;99.90;;;;;;5113028;28;20287;-86
2022/08/25 03:01:59;;;;;;;18.08;14.20;;;16.30;99.90;;;;;;5113719;28;20552;-86
2022/08/25 03:04:27;;;;;;;19.40;13.40;;;16.30;99.90;;;;;;5111914;28;20222;-86
2022/08/25 03:06:54;;;;;;;17.52;13.48;;;16.20;99.90;;;;;;5113716;28;20231;-86
2022/08/25 03:09:21;;;;;;;16.35;13.13;;;16.30;99.90;;;;;;5113450;28;20672;-86
2022/08/25 03:11:50;;;;;;;14.77;13.18;;;16.30;99.90;;;;;;5113039;28;20199;-86
2022/08/25 03:14:17;;;;;;;15.23;12.55;;;16.30;99.90;;;;;;5116346;28;20204;-86
2022/08/25 03:16:44;;;;;;;16.17;13.05;;;16.40;99.90;;;;;;5109460;28;20268;-86
2022/08/25 03:19:11;;;;;;;15.60;13.07;;;16.30;99.90;;;;;;5109173;28;20227;-86
2022/08/25 03:21:38;;;;;;;16.67;13.68;;;16.20;99.90;;;;;;5113919;28;20718;-86
2022/08/25 03:24:06;;;;;;;19.88;14.15;;;16.20;99.90;;;;;;5115001;28;20214;-86
2022/08/25 03:29:18;;;;;;;16.58;13.35;;;16.20;99.90;;;;;;5116526;28;20207;-86
2022/08/25 03:31:45;;;;;;;15.40;12.77;;;16.20;99.90;;;;;;5115888;28;20202;-86
2022/08/25 03:34:13;;;;;;;16.20;12.43;;;16.30;99.90;;;;;;5117014;28;20287;-86
2022/08/25 03:36:40;;;;;;;16.67;13.10;;;16.20;99.90;;;;;;5116356;28;20553;-86
2022/08/25 03:39:11;;;;;;;14.55;11.88;;;16.10;99.90;;;;;;5116493;28;20206;-86
2022/08/25 03:41:39;;;;;;;14.32;12.60;;;16.10;99.90;;;;;;5118867;28;20288;-85
2022/08/25 03:44:08;;;;;;;18.50;13.90;;;16.10;99.90;;;;;;5114638;28;20227;-85
2022/08/25 03:46:40;;;;;;;16.90;13.65;;;16.10;99.90;;;;;;5117394;28;20227;-85
2022/08/25 03:49:09;;;;;;;15.73;13.32;;;16.00;99.90;;;;;;5106185;28;20193;-85
2022/08/25 03:51:40;;;;;;;14.48;12.75;;;16.00;99.90;;;;;;5131830;28;20213;-85
2022/08/25 03:54:11;;;;;;;14.88;12.73;;;16.10;99.90;;;;;;5139824;28;20208;-86
2022/08/25 03:56:38;;;;;;;17.25;13.65;;;16.00;99.90;;;;;;5140955;28;20179;-86
2022/08/25 03:59:07;;;;;;;17.25;13.75;;;16.00;99.90;;;;;;5128065;28;20192;-86
2022/08/25 04:01:36;;;;;;;18.42;14.15;;;16.00;99.90;;;;;;5105709;28;20214;-86
2022/08/25 04:04:07;;;;;;;16.30;12.93;;;15.90;99.90;;;;;;5114283;28;20207;-86
2022/08/25 04:06:34;;;;;;;17.05;13.18;;;15.90;99.90;;;;;;5117230;28;20204;-85
2022/08/25 04:09:06;;;;;;;15.27;12.75;;;16.00;99.90;;;;;;5107354;28;20196;-85
2022/08/25 04:11:36;;;;;;;16.02;13.05;;;16.10;99.90;;;;;;5100868;28;20196;-86
2022/08/25 04:14:04;;;;;;;16.38;12.90;;;16.00;99.90;;;;;;5113121;28;20198;-86
2022/08/25 04:16:34;;;;;;;17.50;13.48;;;16.00;99.90;;;;;;5115346;28;20192;-86
2022/08/25 04:19:09;;;;;;;15.60;12.52;;;16.00;99.90;;;;;;5114827;28;20192;-86
2022/08/25 04:21:37;;;;;;;17.35;13.00;;;16.00;99.90;;;;;;5103863;28;20223;-86
2022/08/25 04:24:05;;;;;;;17.08;11.95;;;16.00;99.90;;;;;;5101852;28;20293;-86
2022/08/25 04:26:36;;;;;;;13.45;11.48;;;16.10;99.90;;;;;;5114124;28;20199;-86
2022/08/25 04:29:12;;;;;;;14.60;11.90;;;16.20;99.90;;;;;;5113747;28;20200;-86
2022/08/25 04:31:41;;;;;;;15.60;12.68;;;16.20;99.90;;;;;;5108387;28;20235;-86
2022/08/25 04:34:13;;;;;;;14.82;11.95;;;16.20;99.90;;;;;;5097423;28;20211;-86
2022/08/25 04:36:49;;;;;;;14.80;11.80;;;16.20;99.90;;;;;;5109296;28;20200;-86
2022/08/25 04:39:16;;;;;;;15.38;12.18;;;16.10;99.90;;;;;;5109676;28;20196;-86
2022/08/25 04:41:43;;;;;;;17.55;11.10;;;16.00;99.90;;;;;;5109736;28;20207;-86
2022/08/25 04:44:10;;;;;;;14.02;11.20;;;16.00;99.90;;;;;;5098730;28;20269;-86
2022/08/25 04:46:37;;;;;;;14.48;11.30;;;15.90;99.90;;;;;;5107192;28;20222;-86
2022/08/25 04:49:05;;;;;;;16.35;11.60;;;15.80;99.90;;;;;;5114085;28;20214;-86
2022/08/25 04:51:36;;;;;;;13.73;10.88;;;15.70;99.90;;;;;;5113515;28;20210;-86
2022/08/25 04:54:05;;;;;;;13.70;11.10;;;15.60;99.90;;;;;;5097205;28;20204;-86
2022/08/25 04:56:36;;;;;;;13.77;11.25;;;15.60;99.90;;;;;;5106515;28;20210;-86
2022/08/25 04:59:06;;;;;;;14.38;10.15;;;15.60;99.90;;;;;;5101155;28;20581;-86
2022/08/25 05:01:34;;;;;;;11.45;10.07;;;15.70;99.90;;;;;;5114372;28;20632;-86
2022/08/25 05:04:04;;;;;;;11.70;9.75;;;15.80;99.90;;;;;;5113295;28;20580;-86
2022/08/25 05:06:33;;;;;;;14.77;10.27;;;15.90;99.90;;;;;;5074137;28;1123043;-86
2022/08/25 05:09:06;;;;;;;10.50;9.40;;;16.00;99.90;;;;;;5113398;28;20961;-86
2022/08/25 05:11:33;;;;;;;14.45;9.90;;;16.00;99.80;;;;;;5114457;28;20287;-86
2022/08/25 05:14:01;;;;;;;11.98;9.02;;;16.00;99.60;;;;;;5114949;28;20196;-86
2022/08/25 05:16:29;;;;;;;12.23;9.48;;;16.10;99.50;;;;;;5112635;27;20200;-86
2022/08/25 05:18:56;;;;;;;11.27;8.43;;;16.10;99.40;;;;;;5113674;28;20218;-86
2022/08/25 05:21:26;;;;;;;10.32;8.00;;;16.10;99.50;;;;;;5114854;28;20195;-86
2022/08/25 05:23:57;;;;;;;10.15;8.25;;;16.00;99.50;;;;;;5114451;27;20199;-86
2022/08/25 05:26:26;;;;;;;8.15;7.30;;;16.10;99.50;;;;;;5113568;28;20613;-86
2022/08/25 05:28:54;;;;;;;9.20;7.18;;;16.10;99.20;;;;;;5114358;28;20210;-86
2022/08/25 05:31:24;;;;;;;7.90;7.10;;;16.20;99.10;;;;;;5112964;28;20204;-86
2022/08/25 05:33:51;;;;;;;9.82;7.60;;;16.20;99.10;;;;;;5115547;28;20222;-86
2022/08/25 05:36:19;;;;;;;11.38;7.07;;;16.20;99.00;;;;;;5114385;28;20613;-86
2022/08/25 05:38:46;;;;;;;11.43;7.43;;;16.30;98.70;;;;;;5114128;27;20203;-86
2022/08/25 05:41:26;;;;;;;9.45;7.57;;;16.20;98.80;;;;;;5109806;28;20234;-86
2022/08/25 05:43:54;;;;;;;9.20;7.50;;;16.30;99.10;;;;;;5112980;28;20622;-86
2022/08/25 05:46:22;;;;;;;11.18;8.73;;;16.40;98.90;;;;;;5114069;28;20243;-86
2022/08/25 05:48:49;;;;;;;11.75;8.27;;;16.40;98.80;;;;;;5101158;28;20223;-86
2022/08/25 05:51:16;;;;;;;12.18;8.40;;;16.40;98.90;;;;;;5106582;28;20260;-86
2022/08/25 05:53:45;;;;;;;15.50;8.20;;;16.40;99.10;;;;;;5107550;28;20196;-86
2022/08/25 05:56:20;;;;;;;11.23;9.18;;;16.50;99.20;;;;;;5100160;28;20206;-86
2022/08/25 05:58:47;;;;;;;12.30;9.30;;;16.50;99.00;;;;;;5094705;28;20199;-86
2022/08/25 06:04:09;;;;;;;13.32;10.77;;;16.60;99.30;;;;;;5102216;28;20204;-85
2022/08/25 06:06:48;;;;;;;15.45;10.15;;;16.70;99.50;;;;;;5102934;28;20212;-86
2022/08/25 06:09:15;;;;;;;15.55;11.32;;;16.80;99.40;;;;;;5108667;28;20647;-85
2022/08/25 06:11:43;;;;;;;14.95;10.95;;;16.80;99.10;;;;;;5097925;28;20192;-86
2022/08/25 06:14:10;;;;;;;13.13;10.68;;;16.80;99.20;;;;;;5105222;28;20711;-86
2022/08/25 06:16:50;;;;;;;15.85;11.32;;;17.00;99.00;;;;;;5113551;28;20677;-85
2022/08/25 06:19:17;;;;;;;14.43;10.85;;;17.10;98.90;;;;;;5098899;28;20207;-86
2022/08/25 06:21:44;;;;;;;12.45;10.90;;;17.30;98.60;;;;;;5099584;28;20320;-86
2022/08/25 06:24:11;;;;;;;14.07;11.25;;;17.40;98.30;;;;;;5115754;28;20210;-86
2022/08/25 06:26:38;;;;;;;14.52;10.63;;;17.40;97.90;;;;;;5105626;28;20307;-86
2022/08/25 06:29:06;;;;;;;14.68;11.50;;;17.50;97.60;;;;;;5101893;28;20208;-86
2022/08/25 06:31:36;;;;;;;12.82;10.90;;;17.40;97.80;;;;;;5097798;28;20793;-86
2022/08/25 06:34:03;;;;;;;13.40;10.55;;;17.50;97.70;;;;;;5098706;28;20196;-86
2022/08/25 06:36:30;;;;;;;14.43;11.05;;;17.60;97.50;;;;;;5095275;28;20631;-85
2022/08/25 06:38:57;;;;;;;15.95;11.90;;;17.60;97.50;;;;;;5106789;28;20195;-86
2022/08/25 06:41:24;;;;;;;11.55;9.93;;;17.60;97.50;;;;;;5095977;28;20560;-86
2022/08/25 06:43:51;;;;;;;12.18;10.88;;;17.70;97.50;;;;;;5095304;28;20231;-86
2022/08/25 06:46:22;;;;;;;10.80;9.70;;;17.80;96.90;;;;;;5106480;28;20219;-86
2022/08/25 06:48:55;;;;;;;10.98;9.77;;;17.90;96.70;;;;;;5112759;28;20203;-86
2022/08/25 06:51:25;;;;;;;12.50;10.60;;;17.90;96.60;;;;;;5112999;28;20200;-86
2022/08/25 06:53:52;;;;;;;12.15;9.88;;;18.10;97.20;;;;;;5111774;28;20662;-86
2022/08/25 06:56:21;;;;;;;16.73;10.70;;;18.40;96.70;;;;;;5110983;28;20203;-86
2022/08/25 06:58:48;;;;;;;12.77;9.88;;;18.40;96.70;;;;;;5112601;28;20196;-86
2022/08/25 07:01:21;;;;;;;11.07;9.68;;;18.50;96.00;;;;;;5110889;28;20196;-86
2022/08/25 07:03:52;;;;;;;10.27;9.15;;;18.60;95.90;;;;;;5108650;28;20208;-86
2022/08/25 07:06:19;;;;;;;10.38;8.70;;;18.60;95.10;;;;;;5113297;28;20639;-86
2022/08/25 07:08:47;;;;;;;10.65;8.98;;;18.70;95.10;;;;;;5111968;28;20280;-86
2022/08/25 07:11:14;;;;;;;8.77;7.90;;;18.80;94.60;;;;;;5113254;28;20573;-86
2022/08/25 07:13:41;;;;;;;10.98;8.43;;;19.00;94.00;;;;;;5113449;28;20658;-86
2022/08/25 07:16:09;;;;;;;10.10;7.65;;;19.10;93.00;;;;;;5109854;28;20312;-85
2022/08/25 07:18:44;;;;;;;8.13;7.28;;;19.10;93.50;;;;;;5111662;28;20287;-86
2022/08/25 07:21:12;;;;;;;7.50;6.80;;;19.20;93.20;;;;;;5108892;28;20213;-86
2022/08/25 07:23:48;;;;;;;7.43;6.72;;;19.40;92.50;;;;;;5113371;28;20256;-86
2022/08/25 07:26:17;;;;;;;7.75;7.03;;;19.40;92.50;;;;;;5097524;28;20222;-86
2022/08/25 07:28:44;;;;;;;8.95;6.85;;;19.40;92.80;;;;;;5114619;28;20203;-86
2022/08/25 07:31:15;;;;;;;8.48;7.00;;;19.40;92.80;;;;;;5113614;28;20568;-86
2022/08/25 07:36:25;;;;;;;8.45;7.55;;;19.40;92.50;;;;;;5101366;28;20200;-86
2022/08/25 07:38:55;;;;;;;7.88;6.88;;;19.50;92.50;;;;;;5114898;28;20246;-86
2022/08/25 07:41:25;;;;;;;9.35;7.50;;;19.60;92.50;;;;;;5112067;28;20272;-85
2022/08/25 07:44:00;;;;;;;8.90;8.00;;;19.80;92.30;;;;;;5108258;28;20572;-85
2022/08/25 07:46:27;;;;;;;10.20;7.68;;;19.90;90.90;;;;;;5117687;28;20223;-86
2022/08/25 07:49:01;;;;;;;8.18;7.03;;;20.00;90.90;;;;;;5117351;28;20223;-86
2022/08/25 07:51:42;;;;;;;8.40;7.30;;;20.00;90.80;;;;;;5127490;28;20209;-86
2022/08/25 07:54:09;;;;;;;8.63;7.43;;;20.10;91.10;;;;;;5136452;28;20223;-86
2022/08/25 07:56:35;;;;;;;9.57;8.25;;;20.20;90.50;;;;;;5128255;28;20565;-86
2022/08/25 07:59:02;;;;;;;8.95;8.05;;;20.40;90.10;;;;;;5129153;28;20192;-86
2022/08/25 08:01:29;;;;;;;9.10;7.55;;;20.40;89.50;;;;;;5133955;28;20247;-86
2022/08/25 08:03:56;;;;;;;8.57;7.38;;;20.50;90.00;;;;;;5114787;28;20193;-86
2022/08/25 08:06:24;;;;;;;11.15;7.20;;;20.50;89.80;;;;;;5117411;28;20230;-86
2022/08/25 08:08:53;;;;;;;10.95;9.25;;;20.60;90.00;;;;;;5115510;28;20208;-86
2022/08/25 08:11:23;;;;;;;10.35;8.85;;;20.60;88.30;;;;;;5117110;28;20653;-86
2022/08/25 08:13:50;;;;;;;15.40;8.98;;;20.60;89.80;;;;;;5114994;28;20196;-86
2022/08/25 08:16:18;;;;;;;9.30;7.93;;;20.70;88.80;;;;;;5116954;28;20249;-86
2022/08/25 08:18:46;;;;;;;10.43;7.85;;;20.70;90.00;;;;;;5114379;28;20191;-86
2022/08/25 08:21:14;;;;;;;8.82;7.60;;;20.80;91.20;;;;;;5113954;28;20192;-86
2022/08/25 08:23:43;;;;;;;8.63;7.50;;;20.90;87.60;;;;;;5114652;28;20199;-86
2022/08/25 08:26:10;;;;;;;7.55;6.82;;;21.10;86.40;;;;;;5113697;27;20224;-86
2022/08/25 08:28:36;;;;;;;10.50;7.45;;;21.10;86.20;;;;;;5114386;28;20200;-86
2022/08/25 08:31:06;;;;;;;9.00;7.28;;;21.20;85.00;;;;;;5113098;28;20192;-86
2022/08/25 08:33:34;;;;;;;8.90;6.15;;;21.20;84.40;;;;;;5115942;28;20647;-86
2022/08/25 08:36:05;;;;;;;7.30;6.60;;;21.40;84.40;;;;;;5115771;28;20196;-86
2022/08/25 08:38:32;;;;;;;6.38;5.70;;;21.60;82.00;;;;;;5116656;28;20635;-86
2022/08/25 08:44:03;;;;;;;8.10;6.63;;;21.70;81.30;;;;;;5105881;28;20219;-86
2022/08/25 08:46:39;;;;;;;11.27;6.30;;;21.90;79.10;;;;;;5115940;28;20704;-86
2022/08/25 08:49:21;;;;;;;11.45;5.95;;;21.90;78.10;;;;;;5115085;28;20211;-85
2022/08/25 08:51:59;;;;;;;8.80;6.35;;;22.00;78.40;;;;;;5110084;28;20301;-86
2022/08/25 08:54:35;;;;;;;7.10;6.20;;;22.20;78.20;;;;;;5102292;28;20604;-86
2022/08/25 08:57:09;;;;;;;8.50;5.45;;;22.50;75.70;;;;;;5112833;28;20207;-86
2022/08/25 08:59:43;;;;;;;6.18;5.15;;;22.80;76.60;;;;;;5101680;28;20569;-86
2022/08/25 09:02:16;;;;;;;6.07;5.50;;;22.90;69.60;;;;;;5107503;28;20717;-83
2022/08/25 09:04:55;;;;;;;8.68;5.60;;;23.20;66.00;;;;;;5104971;28;20262;-86
2022/08/25 09:07:29;;;;;;;5.70;5.10;;;23.30;65.20;;;;;;5102781;28;20567;-85
2022/08/25 09:10:00;;;;;;;5.82;5.22;;;23.40;63.80;;;;;;5112229;28;20239;-82
2022/08/25 09:12:39;;;;;;;5.18;4.60;;;23.90;59.00;;;;;;5105034;28;20192;-84
2022/08/25 09:15:14;;;;;;;6.43;4.78;;;25.30;48.00;;;;;;5105449;28;20692;-84
2022/08/25 09:18:01;;;;;;;6.32;4.57;;;26.80;37.40;;;;;;5105729;28;20294;-85
2022/08/25 09:20:46;;;;;;;5.85;4.63;;;28.00;32.30;;;;;;5102666;28;20195;-85
2022/08/25 09:23:24;;;;;;;5.15;4.40;;;29.70;26.70;;;;;;5112520;28;20209;-85
2022/08/25 09:26:00;;;;;;;6.57;4.25;;;31.80;18.50;;;;;;5103539;28;20237;-85
2022/08/25 09:28:34;;;;;;;4.75;4.32;;;32.40;17.80;;;;;;5096773;28;20200;-85
2022/08/25 09:31:03;;;;;;;5.63;5.00;;;32.70;17.20;;;;;;5104746;28;20233;-85
2022/08/25 09:33:42;;;;;;;5.57;5.18;;;32.80;15.60;;;;;;5105614;28;20275;-85
2022/08/25 09:36:30;;;;;;;5.13;4.65;;;32.70;15.60;;;;;;5098177;28;20196;-85
2022/08/25 09:38:57;;;;;;;6.80;5.32;;;33.70;13.30;;;;;;5101786;28;20214;-86
2022/08/25 09:41:44;;;;;;;5.18;4.78;;;33.20;14.70;;;;;;5115143;28;20192;-86
2022/08/25 09:44:25;;;;;;;11.30;5.60;;;34.10;13.10;;;;;;5114697;28;20223;-87
2022/08/25 09:47:41;;;;;;;7.38;4.88;;;33.70;14.00;;;;;;5116024;28;20227;-85
2022/08/25 09:50:15;;;;;;;6.05;5.40;;;33.90;13.00;;;;;;5122663;28;20203;-85
2022/08/25 09:52:48;;;;;;;7.05;6.40;;;34.00;12.30;;;;;;5118918;28;20203;-86
2022/08/25 09:55:33;;;;;;;7.25;6.18;;;34.00;13.00;;;;;;5110859;28;20207;-86
2022/08/25 09:57:59;;;;;;;6.45;5.75;;;33.00;15.10;;;;;;5111278;27;20203;-86
2022/08/25 10:00:32;;;;;;;5.30;4.90;;;32.80;15.50;;;;;;5110006;27;20659;-86
2022/08/25 10:03:10;;;;;;;5.80;5.30;;;32.60;14.40;;;;;;5115361;28;20211;-86
2022/08/25 10:05:47;;;;;;;6.18;5.57;;;34.30;11.90;;;;;;5116000;28;20203;-85
2022/08/25 10:08:26;;;;;;;5.57;4.97;;;33.70;12.90;;;;;;5119170;28;20199;-86
2022/08/25 10:10:56;;;;;;;6.10;5.35;;;33.30;13.60;;;;;;5105993;28;20202;-85
2022/08/25 10:13:34;;;;;;;5.53;5.03;;;34.10;12.20;;;;;;5117381;28;20192;-86
2022/08/25 10:16:07;;;;;;;6.20;5.28;;;33.40;13.70;;;;;;5114185;28;20669;-86
2022/08/25 10:18:42;;;;;;;5.38;5.03;;;34.00;13.40;;;;;;5118553;28;20204;-86
2022/08/25 10:21:12;;;;;;;8.65;7.78;;;33.60;13.00;;;;;;5117488;28;20227;-86
2022/08/25 10:23:45;;;;;;;7.88;5.65;;;32.80;16.00;;;;;;5115425;28;20188;-86
2022/08/25 10:26:32;;;;;;;5.90;5.40;;;32.20;16.60;;;;;;5115776;28;20724;-86
2022/08/25 10:29:10;;;;;;;6.05;4.85;;;32.70;14.30;;;;;;5116709;28;20706;-86
2022/08/25 10:31:47;;;;;;;5.53;5.03;;;32.90;14.20;;;;;;5116925;28;20225;-86
2022/08/25 10:34:31;;;;;;;5.82;5.00;;;32.10;16.20;;;;;;5102390;28;20198;-86
2022/08/25 10:37:09;;;;;;;5.20;4.70;;;32.10;15.60;;;;;;5104658;28;20241;-85
2022/08/25 10:39:41;;;;;;;4.80;4.50;;;32.30;15.50;;;;;;5111409;28;20210;-85
2022/08/25 10:42:30;;;;;;;5.03;4.63;;;32.70;14.30;;;;;;5113851;28;20635;-85
2022/08/25 10:48:27;;;;;;;5.40;4.90;;;32.20;15.30;;;;;;5095691;28;20234;-85
2022/08/25 10:51:00;;;;;;;5.70;5.20;;;31.90;16.50;;;;;;5108721;28;20211;-85
2022/08/25 10:53:33;;;;;;;6.38;5.10;;;32.80;14.00;;;;;;5107363;28;20203;-85
2022/08/25 10:56:07;;;;;;;6.15;5.15;;;33.20;13.70;;;;;;5108753;28;20200;-85
2022/08/25 10:59:08;;;;;;;5.85;5.22;;;32.60;14.70;;;;;;5106181;28;20286;-86
2022/08/25 11:01:46;;;;;;;5.05;4.55;;;32.40;15.00;;;;;;5050264;28;20787;-86
2022/08/25 11:04:24;;;;;;;5.72;4.97;;;32.90;12.90;;;;;;5043570;28;20205;-85
2022/08/25 11:06:59;;;;;;;5.82;4.72;;;32.10;13.40;;;;;;5049668;28;20221;-85
2022/08/25 11:09:38;;;;;;;6.35;5.60;;;31.50;14.90;;;;;;5044278;28;20209;-85
2022/08/25 11:12:09;;;;;;;5.38;4.75;;;30.60;16.90;;;;;;5046038;28;20654;-85
2022/08/25 11:14:46;;;;;;;5.15;4.65;;;29.70;18.70;;;;;;5050280;28;20353;-85
2022/08/25 11:17:19;;;;;;;8.52;5.22;;;29.30;19.20;;;;;;5046420;28;20208;-84
2022/08/25 11:19:49;;;;;;;10.43;5.53;;;28.80;20.60;;;;;;5047776;28;20217;-84
2022/08/25 11:22:23;;;;;;;5.72;4.82;;;28.30;21.70;;;;;;5050821;28;20194;-84
2022/08/25 11:25:05;;;;;;;7.78;5.07;;;28.40;23.50;;;;;;5046974;28;20209;-84
2022/08/25 11:27:48;;;;;;;7.45;5.97;;;28.70;21.20;;;;;;5049033;28;20213;-84
2022/08/25 11:30:17;;;;;;;7.28;5.28;;;29.10;20.80;;;;;;5051790;28;20197;-84
2022/08/25 11:32:50;;;;;;;10.65;5.35;;;29.30;20.00;;;;;;5048229;28;20288;-84
2022/08/25 11:35:29;;;;;;;7.47;5.15;;;29.40;20.60;;;;;;5054512;28;20197;-84
2022/08/25 11:38:23;;;;;;;8.90;5.57;;;29.40;19.50;;;;;;5073567;28;20559;-83
2022/08/25 11:40:58;;;;;;;7.90;5.90;;;29.20;20.60;;;;;;5124150;28;20195;-84
2022/08/25 11:43:42;;;;;;;9.50;8.50;;;29.20;21.80;;;;;;5109702;28;20546;-84
2022/08/25 11:46:27;;;;;;;11.10;5.95;;;29.20;22.00;;;;;;5112770;28;20195;-84
2022/08/25 11:49:07;;;;;;;7.07;5.72;;;29.10;20.90;;;;;;5114725;28;20287;-84
2022/08/25 11:51:42;;;;;;;7.45;5.95;;;28.90;21.20;;;;;;5099664;28;20192;-84
2022/08/25 11:54:23;;;;;;;8.80;5.80;;;28.70;23.60;;;;;;5113780;28;20201;-84
2022/08/25 11:57:01;;;;;;;8.35;5.85;;;28.50;22.90;;;;;;5107768;28;20207;-84
2022/08/25 12:00:11;;;;;;;8.02;5.80;;;28.60;22.50;;;;;;5109816;28;20741;-84
2022/08/25 12:02:40;;;;;;;7.80;6.13;;;28.80;22.50;;;;;;5107557;28;20214;-84
2022/08/25 12:06:10;;;;;;;7.70;5.78;;;29.00;22.50;;;;;;5112078;28;20203;-84
2022/08/25 12:09:18;;;;;;;8.52;6.10;;;29.00;21.90;;;;;;5111279;28;20211;-84
2022/08/25 12:11:54;;;;;;;11.80;7.28;;;28.80;22.60;;;;;;5108949;28;20301;-84
2022/08/25 12:14:44;;;;;;;7.35;5.70;;;28.70;21.90;;;;;;5106538;28;20710;-84
2022/08/25 12:17:23;;;;;;;6.82;5.22;;;28.70;21.10;;;;;;5110483;28;20191;-84
2022/08/25 12:19:57;;;;;;;8.80;5.70;;;28.80;21.10;;;;;;5105036;28;20203;-84
2022/08/25 12:22:53;;;;;;;6.70;5.28;;;28.90;20.00;;;;;;5106976;28;20195;-84
2022/08/25 12:25:43;;;;;;;8.27;5.10;;;28.90;19.60;;;;;;5108486;28;20260;-84
2022/08/25 12:28:24;;;;;;;13.15;5.45;;;28.90;22.20;;;;;;5114654;28;20694;-84
2022/08/25 12:30:57;;;;;;;6.20;5.60;;;29.00;20.90;;;;;;5111658;28;20203;-84
2022/08/25 12:33:39;;;;;;;6.07;5.47;;;29.10;19.70;;;;;;5108292;27;20659;-84
2022/08/25 12:36:08;;;;;;;8.60;5.85;;;29.00;20.50;;;;;;5105318;28;20206;-84
2022/08/25 12:38:42;;;;;;;7.57;5.60;;;28.90;20.50;;;;;;5121423;28;20192;-84
2022/08/25 12:41:13;;;;;;;6.07;5.47;;;29.00;20.00;;;;;;5115962;28;20647;-84
2022/08/25 12:43:43;;;;;;;8.98;5.47;;;29.10;19.60;;;;;;5116296;28;20219;-84
2022/08/25 12:46:33;;;;;;;11.32;5.93;;;29.30;18.20;;;;;;5109717;28;20671;-84
2022/08/25 12:49:02;;;;;;;9.25;6.35;;;29.10;19.20;;;;;;5100104;28;20203;-84
2022/08/25 12:51:54;;;;;;;9.57;6.47;;;29.10;20.60;;;;;;5098406;28;20196;-84
2022/08/25 12:54:30;;;;;;;8.05;6.32;;;29.40;20.00;;;;;;5098013;28;20204;-84
2022/08/25 12:57:01;;;;;;;10.27;6.63;;;29.40;20.40;;;;;;5100095;28;20675;-84
2022/08/25 12:59:35;;;;;;;11.85;6.90;;;29.10;21.30;;;;;;5108996;28;20266;-84
2022/08/25 13:02:29;;;;;;;10.48;7.20;;;29.00;21.70;;;;;;5111082;28;20200;-84
2022/08/25 13:05:16;;;;;;;9.82;6.60;;;28.70;21.80;;;;;;5117539;28;20211;-84
2022/08/25 13:07:57;;;;;;;12.38;6.72;;;28.30;23.00;;;;;;5100282;28;20215;-84
2022/08/25 13:10:43;;;;;;;11.73;6.45;;;27.80;24.10;;;;;;5098731;28;20219;-84
2022/08/25 13:13:19;;;;;;;10.23;7.10;;;27.50;25.40;;;;;;5108883;28;20235;-83
2022/08/25 13:15:57;;;;;;;12.88;7.18;;;27.20;26.90;;;;;;5114207;28;20196;-83
2022/08/25 13:18:27;;;;;;;9.48;7.22;;;27.20;25.90;;;;;;5112905;28;20290;-83
2022/08/25 13:21:05;;;;;;;14.63;7.28;;;27.50;26.00;;;;;;5118599;28;20192;-83
2022/08/25 13:23:35;;;;;;;12.15;6.70;;;27.60;25.20;;;;;;5120340;28;20202;-83